createdAt,value
2019-01-23T00:01:59.962Z,29.53
2019-01-23T00:04:30.771Z,28.37
2019-01-23T00:07:01.305Z,29.63
2019-01-23T00:09:31.931Z,29.37
2019-01-23T00:12:02.699Z,31.45
2019-01-23T00:14:33.288Z,27.93
2019-01-23T00:17:03.934Z,29.80
2019-01-23T00:19:34.759Z,37.60
2019-01-23T00:22:05.976Z,28.57
2019-01-23T00:24:36.530Z,27.30
2019-01-23T00:27:07.069Z,27.40
2019-01-23T00:29:37.891Z,29.73
2019-01-23T00:32:09.184Z,23.50
2019-01-23T00:34:39.804Z,26.57
2019-01-23T00:37:10.631Z,29.67
2019-01-23T00:39:41.119Z,25.97
2019-01-23T00:42:11.930Z,27.30
2019-01-23T00:44:42.439Z,27.73
2019-01-23T00:47:12.966Z,24.32
2019-01-23T00:49:43.832Z,23.55
2019-01-23T00:52:14.618Z,23.13
2019-01-23T00:54:45.162Z,23.27
2019-01-23T00:57:15.915Z,25.85
2019-01-23T00:59:46.440Z,24.40
2019-01-23T01:02:16.959Z,24.43
2019-01-23T01:04:47.525Z,26.37
2019-01-23T01:07:18.403Z,25.32
2019-01-23T01:09:49.081Z,28.17
2019-01-23T01:12:19.930Z,22.70
2019-01-23T01:14:50.462Z,25.60
2019-01-23T01:17:20.994Z,24.98
2019-01-23T01:19:51.493Z,23.50
2019-01-23T01:22:22.230Z,25.30
2019-01-23T01:24:53.008Z,21.55
2019-01-23T01:27:23.495Z,24.93
2019-01-23T01:29:54.009Z,26.97
2019-01-23T01:32:24.541Z,28.40
2019-01-23T01:34:55.062Z,28.13
2019-01-23T01:37:25.542Z,29.12
2019-01-23T01:39:56.221Z,27.10
2019-01-23T01:42:27.112Z,28.02
2019-01-23T01:44:57.932Z,28.25
2019-01-23T01:47:28.452Z,28.93
2019-01-23T01:49:58.991Z,27.87
2019-01-23T01:52:29.515Z,32.40
2019-01-23T01:55:00.249Z,31.73
2019-01-23T01:57:31.031Z,29.82
2019-01-23T02:00:01.531Z,26.03
2019-01-23T02:02:32.052Z,30.60
2019-01-23T02:05:02.556Z,29.63
2019-01-23T02:07:33.093Z,31.27
2019-01-23T02:10:04.047Z,24.63
2019-01-23T02:12:34.537Z,33.13
2019-01-23T02:15:05.862Z,32.17
2019-01-23T02:17:36.412Z,27.80
2019-01-23T02:20:14.202Z,27.80
2019-01-23T02:22:45.040Z,28.37
2019-01-23T02:25:15.854Z,26.07
2019-01-23T02:27:47.212Z,29.23
2019-01-23T02:30:20.796Z,25.95
2019-01-23T02:32:51.367Z,25.87
2019-01-23T02:35:22.129Z,33.97
2019-01-23T02:37:52.780Z,28.93
2019-01-23T02:40:24.702Z,28.90
2019-01-23T02:42:55.354Z,25.93
2019-01-23T02:45:26.189Z,30.23
2019-01-23T02:47:56.974Z,28.02
2019-01-23T02:50:27.522Z,33.63
2019-01-23T02:52:58.071Z,28.40
2019-01-23T02:55:28.661Z,30.90
2019-01-23T02:57:59.246Z,33.87
2019-01-23T03:00:29.774Z,31.57
2019-01-23T03:03:00.298Z,26.13
2019-01-23T03:05:31.073Z,29.73
2019-01-23T03:08:01.598Z,29.33
2019-01-23T03:10:32.176Z,30.20
2019-01-23T03:13:02.695Z,31.67
2019-01-23T03:15:33.427Z,26.07
2019-01-23T03:18:04.152Z,31.93
2019-01-23T03:20:34.627Z,32.50
2019-01-23T03:23:05.208Z,25.77
2019-01-23T03:25:35.706Z,25.23
2019-01-23T03:28:06.418Z,27.63
2019-01-23T03:30:36.974Z,29.33
2019-01-23T03:33:07.491Z,29.43
2019-01-23T03:35:38.168Z,34.70
2019-01-23T03:38:09.494Z,32.13
2019-01-23T03:40:40.315Z,29.00
2019-01-23T03:43:11.516Z,28.32
2019-01-23T03:45:42.333Z,31.77
2019-01-23T03:48:13.162Z,31.25
2019-01-23T03:50:43.832Z,29.27
2019-01-23T03:53:14.330Z,33.80
2019-01-23T03:55:45.131Z,31.10
2019-01-23T03:58:15.683Z,34.40
2019-01-23T04:00:46.398Z,29.47
2019-01-23T04:03:17.194Z,32.45
2019-01-23T04:05:47.748Z,33.03
2019-01-23T04:08:18.282Z,34.60
2019-01-23T04:10:48.799Z,29.60
2019-01-23T04:13:19.617Z,34.45
2019-01-23T04:15:50.417Z,31.82
2019-01-23T04:18:21.190Z,27.48
2019-01-23T04:20:51.672Z,27.00
2019-01-23T04:23:22.259Z,30.37
2019-01-23T04:25:52.763Z,27.07
2019-01-23T04:28:23.600Z,23.38
2019-01-23T04:30:54.416Z,30.88
2019-01-23T04:33:25.197Z,26.20
2019-01-23T04:35:55.725Z,31.77
2019-01-23T04:38:26.303Z,28.30
2019-01-23T04:40:56.830Z,28.53
2019-01-23T04:43:27.347Z,31.27
2019-01-23T04:45:57.868Z,30.73
2019-01-23T04:48:28.454Z,26.00
2019-01-23T04:51:21.295Z,24.70
2019-01-23T04:53:51.811Z,27.47
2019-01-23T04:56:22.340Z,27.43
2019-01-23T04:58:52.823Z,34.47
2019-01-23T05:01:23.700Z,25.55
2019-01-23T05:03:54.529Z,31.33
2019-01-23T05:06:25.311Z,34.40
2019-01-23T05:08:55.827Z,28.93
2019-01-23T05:11:27.874Z,28.70
2019-01-23T05:13:58.369Z,25.97
2019-01-23T05:16:28.944Z,28.43
2019-01-23T05:18:59.526Z,29.87
2019-01-23T05:21:30.070Z,24.67
2019-01-23T05:24:00.569Z,29.87
2019-01-23T05:26:31.438Z,30.57
2019-01-23T05:29:02.009Z,31.60
2019-01-23T05:31:32.551Z,32.50
2019-01-23T05:34:03.078Z,36.73
2019-01-23T05:36:33.629Z,36.50
2019-01-23T05:39:06.768Z,35.07
2019-01-23T05:41:37.456Z,29.57
2019-01-23T05:44:09.111Z,25.57
2019-01-23T05:46:39.593Z,27.67
2019-01-23T05:49:10.099Z,28.87
2019-01-23T05:51:40.646Z,33.37
2019-01-23T05:54:11.428Z,34.43
2019-01-23T05:56:41.955Z,30.97
2019-01-23T05:59:12.434Z,31.70
2019-01-23T06:01:42.985Z,29.37
2019-01-23T06:04:13.699Z,34.55
2019-01-23T06:06:44.498Z,27.77
2019-01-23T06:09:15.021Z,23.77
2019-01-23T06:11:45.570Z,28.53
2019-01-23T06:14:16.160Z,33.13
2019-01-23T06:16:46.649Z,28.73
2019-01-23T06:19:17.807Z,28.95
2019-01-23T06:21:48.682Z,23.80
2019-01-23T06:24:19.543Z,32.90
2019-01-23T06:26:50.078Z,29.93
2019-01-23T06:29:20.635Z,25.97
2019-01-23T06:31:51.405Z,31.42
2019-01-23T06:34:21.937Z,26.60
2019-01-23T06:36:52.744Z,24.17
2019-01-23T06:39:23.596Z,27.40
2019-01-23T06:41:54.101Z,24.23
2019-01-23T06:44:24.661Z,39.90
2019-01-23T06:46:55.484Z,27.60
2019-01-23T06:49:25.994Z,29.75
2019-01-23T06:51:56.718Z,30.97
2019-01-23T06:54:27.545Z,32.60
2019-01-23T06:56:58.049Z,33.60
2019-01-23T06:59:28.624Z,33.90
2019-01-23T07:01:59.283Z,26.90
2019-01-23T07:04:29.779Z,26.20
2019-01-23T07:07:00.309Z,33.53
2019-01-23T07:09:30.842Z,33.53
2019-01-23T07:12:01.618Z,29.87
2019-01-23T07:14:32.151Z,38.27
2019-01-23T07:17:03.318Z,30.97
2019-01-23T07:19:33.810Z,31.97
2019-01-23T07:22:04.497Z,29.67
2019-01-23T07:24:34.972Z,34.93
2019-01-23T07:27:05.719Z,32.37
2019-01-23T07:29:36.520Z,30.02
2019-01-23T07:32:07.243Z,33.07
2019-01-23T07:34:37.773Z,25.77
2019-01-23T07:37:09.988Z,30.84
2019-01-23T07:39:40.750Z,38.85
2019-01-23T07:42:11.283Z,26.70
2019-01-23T07:44:41.807Z,35.60
2019-01-23T07:47:12.684Z,33.83
2019-01-23T07:49:43.203Z,31.47
2019-01-23T07:52:13.958Z,32.05
2019-01-23T07:54:44.787Z,32.20
2019-01-23T07:57:15.324Z,34.30
2019-01-23T07:59:45.866Z,31.10
2019-01-23T08:02:18.002Z,33.23
2019-01-23T08:04:48.730Z,38.53
2019-01-23T08:07:19.270Z,32.13
2019-01-23T08:09:49.951Z,33.63
2019-01-23T08:12:20.764Z,38.00
2019-01-23T08:14:51.302Z,38.53
2019-01-23T08:17:21.817Z,34.55
2019-01-23T08:19:52.452Z,38.43
2019-01-23T08:22:23.037Z,35.45
2019-01-23T08:24:53.852Z,37.28
2019-01-23T08:27:24.355Z,32.47
2019-01-23T08:29:54.867Z,33.43
2019-01-23T08:32:25.453Z,38.03
2019-01-23T08:34:55.997Z,34.90
2019-01-23T08:37:27.099Z,44.03
2019-01-23T08:39:57.971Z,38.57
2019-01-23T08:42:28.527Z,45.43
2019-01-23T08:44:59.080Z,42.33
2019-01-23T08:47:29.855Z,40.10
2019-01-23T08:50:00.407Z,38.33
2019-01-23T08:52:30.916Z,41.30
2019-01-23T08:55:01.421Z,38.70
2019-01-23T08:57:31.997Z,37.60
2019-01-23T09:00:02.883Z,39.07
2019-01-23T09:02:33.404Z,43.73
2019-01-23T09:05:04.542Z,43.17
2019-01-23T09:07:35.137Z,46.37
2019-01-23T09:10:09.628Z,36.27
2019-01-23T09:12:40.124Z,39.53
2019-01-23T09:15:12.313Z,36.53
2019-01-23T09:17:42.855Z,46.63
2019-01-23T09:20:15.724Z,38.43
2019-01-23T09:22:46.335Z,40.60
2019-01-23T09:25:19.569Z,39.70
2019-01-23T09:27:50.139Z,38.93
2019-01-23T09:30:34.047Z,39.92
2019-01-23T09:33:45.673Z,40.70
2019-01-23T09:37:07.673Z,39.33
2019-01-23T09:40:25.387Z,39.03
2019-01-23T09:43:59.113Z,38.37
2019-01-23T09:47:24.987Z,32.60
2019-01-23T09:50:58.627Z,36.40
2019-01-23T09:53:39.952Z,35.60
2019-01-23T09:56:11.161Z,41.83
2019-01-23T09:58:42.112Z,41.50
2019-01-23T10:01:12.627Z,36.30
2019-01-23T10:03:43.181Z,35.23
2019-01-23T10:06:13.976Z,37.77
2019-01-23T10:08:45.808Z,35.13
2019-01-23T10:11:16.385Z,39.60
2019-01-23T10:13:46.961Z,39.27
2019-01-23T10:16:20.281Z,34.27
2019-01-23T10:18:56.033Z,37.83
2019-01-23T10:21:23.520Z,29.53
2019-01-23T10:23:54.079Z,37.70
2019-01-23T10:26:24.674Z,40.67
2019-01-23T10:28:55.319Z,43.93
2019-01-23T10:31:26.171Z,33.03
2019-01-23T10:33:56.768Z,37.63
2019-01-23T10:36:27.441Z,38.90
2019-01-23T10:38:58.100Z,40.07
2019-01-23T10:41:31.643Z,34.67
2019-01-23T10:44:02.235Z,40.27
2019-01-23T10:46:33.041Z,40.53
2019-01-23T10:49:03.574Z,38.20
2019-01-23T10:51:34.265Z,35.67
2019-01-23T10:54:05.220Z,36.67
2019-01-23T10:56:36.167Z,33.03
2019-01-23T10:59:06.693Z,36.80
2019-01-23T11:01:37.258Z,37.40
2019-01-23T11:04:07.957Z,31.53
2019-01-23T11:06:38.501Z,33.20
2019-01-23T11:09:10.919Z,32.40
2019-01-23T11:11:41.466Z,37.83
2019-01-23T11:14:12.120Z,44.37
2019-01-23T11:16:42.668Z,33.93
2019-01-23T11:19:13.625Z,37.93
2019-01-23T11:21:44.337Z,44.50
2019-01-23T11:24:15.233Z,38.65
2019-01-23T11:26:46.061Z,40.88
2019-01-23T11:29:16.639Z,43.25
2019-01-23T11:31:47.195Z,38.40
2019-01-23T11:34:17.784Z,39.25
2019-01-23T11:36:48.352Z,33.87
2019-01-23T11:39:19.195Z,37.93
2019-01-23T11:41:49.701Z,35.97
2019-01-23T11:44:20.209Z,34.05
2019-01-23T11:46:50.768Z,35.00
2019-01-23T11:49:21.450Z,39.23
2019-01-23T11:51:52.312Z,36.20
2019-01-23T11:54:25.889Z,38.28
2019-01-23T11:56:56.443Z,33.07
2019-01-23T11:59:27.346Z,35.37
2019-01-23T12:01:58.245Z,41.83
2019-01-23T12:04:28.775Z,37.37
2019-01-23T12:06:59.428Z,38.73
2019-01-23T12:09:30.264Z,37.15
2019-01-23T12:12:00.803Z,38.27
2019-01-23T12:14:31.323Z,44.73
2019-01-23T12:17:02.146Z,43.48
2019-01-23T12:19:33.007Z,44.73
2019-01-23T12:22:03.589Z,39.90
2019-01-23T12:24:34.366Z,39.87
2019-01-23T12:27:05.287Z,35.83
2019-01-23T12:29:36.096Z,48.83
2019-01-23T12:32:06.882Z,76.47
2019-01-23T12:34:37.432Z,45.53
2019-01-23T12:37:08.050Z,36.73
2019-01-23T12:39:38.584Z,43.63
2019-01-23T12:42:10.722Z,36.75
2019-01-23T12:44:41.363Z,42.23
2019-01-23T12:47:12.246Z,44.80
2019-01-23T12:49:42.839Z,43.90
2019-01-23T12:52:13.747Z,35.40
2019-01-23T12:54:44.421Z,36.67
2019-01-23T12:57:15.285Z,36.75
2019-01-23T12:59:45.801Z,36.40
2019-01-23T13:02:16.348Z,40.20
2019-01-23T13:04:47.194Z,34.65
2019-01-23T13:07:17.996Z,39.20
2019-01-23T13:09:48.591Z,38.63
2019-01-23T13:12:19.438Z,37.30
2019-01-23T13:14:50.268Z,36.53
2019-01-23T13:17:20.807Z,39.35
2019-01-23T13:19:51.381Z,36.93
2019-01-23T13:22:22.015Z,40.60
2019-01-23T13:24:52.713Z,40.03
2019-01-23T13:27:23.575Z,42.78
2019-01-23T13:29:54.387Z,43.97
2019-01-23T13:32:24.903Z,32.67
2019-01-23T13:34:55.457Z,41.77
2019-01-23T13:37:26.679Z,48.28
2019-01-23T13:39:57.488Z,43.68
2019-01-23T13:42:28.504Z,50.88
2019-01-23T13:44:59.384Z,56.57
2019-01-23T13:47:29.924Z,52.03
2019-01-23T13:50:00.507Z,50.27
2019-01-23T13:52:31.406Z,46.53
2019-01-23T13:55:02.137Z,42.17
2019-01-23T13:57:32.609Z,53.80
2019-01-23T14:00:03.752Z,43.60
2019-01-23T14:02:34.404Z,42.53
2019-01-23T14:05:05.522Z,45.97
2019-01-23T14:07:36.380Z,51.05
2019-01-23T14:10:09.548Z,43.97
2019-01-23T14:12:40.146Z,43.00
2019-01-23T14:15:16.442Z,40.93
2019-01-23T14:17:47.007Z,43.50
2019-01-23T14:20:18.063Z,50.37
2019-01-23T14:22:48.612Z,43.90
2019-01-23T14:25:19.246Z,48.40
2019-01-23T14:27:49.822Z,38.47
2019-01-23T14:30:44.837Z,41.30
2019-01-23T14:33:15.661Z,48.10
2019-01-23T14:35:47.679Z,41.77
2019-01-23T14:38:18.510Z,35.17
2019-01-23T14:40:49.120Z,44.23
2019-01-23T14:43:19.760Z,39.50
2019-01-23T14:45:50.604Z,38.02
2019-01-23T14:48:21.540Z,49.20
2019-01-23T14:50:52.107Z,48.17
2019-01-23T14:53:22.671Z,44.58
2019-01-23T14:55:53.545Z,43.90
2019-01-23T14:58:24.136Z,36.10
2019-01-23T15:00:54.731Z,40.73
2019-01-23T15:03:25.566Z,37.73
2019-01-23T15:05:56.199Z,40.60
2019-01-23T15:08:26.779Z,46.08
2019-01-23T15:10:57.631Z,44.00
2019-01-23T15:13:28.859Z,43.50
2019-01-23T15:16:00.114Z,41.37
2019-01-23T15:18:30.780Z,47.47
2019-01-23T15:21:01.626Z,54.57
2019-01-23T15:23:32.574Z,37.60
2019-01-23T15:26:03.183Z,43.07
2019-01-23T15:28:33.806Z,44.93
2019-01-23T15:31:04.363Z,43.90
2019-01-23T15:33:34.921Z,40.63
2019-01-23T15:36:05.900Z,38.83
2019-01-23T15:38:36.648Z,39.50
2019-01-23T15:41:07.209Z,44.30
2019-01-23T15:43:37.752Z,40.80
2019-01-23T15:46:08.449Z,40.87
2019-01-23T15:48:39.356Z,38.47
2019-01-23T15:51:11.640Z,44.73
2019-01-23T15:53:42.184Z,45.40
2019-01-23T15:56:12.752Z,34.03
2019-01-23T15:58:43.658Z,41.03
2019-01-23T16:01:14.557Z,41.60
2019-01-23T16:03:46.954Z,39.50
2019-01-23T16:06:19.368Z,40.03
2019-01-23T16:08:51.573Z,39.90
2019-01-23T16:11:22.222Z,40.90
2019-01-23T16:13:52.864Z,37.23
2019-01-23T16:16:24.104Z,37.13
2019-01-23T16:18:55.762Z,44.20
2019-01-23T16:21:26.371Z,44.30
2019-01-23T16:23:56.952Z,40.47
2019-01-23T16:26:29.851Z,35.30
2019-01-23T16:29:02.206Z,43.80
2019-01-23T16:31:34.458Z,44.37
2019-01-23T16:34:05.099Z,39.63
2019-01-23T16:36:35.990Z,40.30
2019-01-23T16:39:09.405Z,37.20
2019-01-23T16:41:40.209Z,37.17
2019-01-23T16:44:11.263Z,34.97
2019-01-23T16:46:41.865Z,45.47
2019-01-23T16:49:13.086Z,63.35
2019-01-23T16:51:44.032Z,48.87
2019-01-23T16:54:15.248Z,34.50
2019-01-23T16:56:46.142Z,37.57
2019-01-23T16:59:17.436Z,42.83
2019-01-23T17:01:48.145Z,40.60
2019-01-23T17:04:18.974Z,39.23
2019-01-23T17:06:49.628Z,33.40
2019-01-23T17:09:20.187Z,41.50
2019-01-23T17:11:50.913Z,50.43
2019-01-23T17:14:23.041Z,46.43
2019-01-23T17:16:55.356Z,43.43
2019-01-23T17:19:26.233Z,41.07
2019-01-23T17:21:57.002Z,46.13
2019-01-23T17:24:27.855Z,39.45
2019-01-23T17:27:00.612Z,47.17
2019-01-23T17:29:31.184Z,44.03
2019-01-23T17:32:01.911Z,40.63
2019-01-23T17:34:32.559Z,45.57
2019-01-23T17:37:03.136Z,41.20
2019-01-23T17:39:33.869Z,44.13
2019-01-23T17:42:04.569Z,37.87
2019-01-23T17:44:35.191Z,41.97
2019-01-23T17:47:07.788Z,41.47
2019-01-23T17:49:38.433Z,36.43
2019-01-23T17:52:09.029Z,46.40
2019-01-23T17:54:39.920Z,47.37
2019-01-23T17:57:11.329Z,47.20
2019-01-23T17:59:41.899Z,42.27
2019-01-23T18:02:13.742Z,38.20
2019-01-23T18:04:51.255Z,42.13
2019-01-23T18:07:22.829Z,41.45
2019-01-23T18:10:03.777Z,38.90
2019-01-23T18:12:34.601Z,38.40
2019-01-23T18:15:07.713Z,42.97
2019-01-23T18:17:38.361Z,47.60
2019-01-23T18:20:18.252Z,38.77
2019-01-23T18:22:51.196Z,33.67
2019-01-23T18:25:23.210Z,39.92
2019-01-23T18:27:54.130Z,45.80
2019-01-23T18:31:17.712Z,37.95
2019-01-23T18:34:35.870Z,40.00
2019-01-23T18:37:26.491Z,41.07
2019-01-23T18:40:47.134Z,37.30
2019-01-23T18:44:21.968Z,31.45
2019-01-23T18:47:28.631Z,36.23
2019-01-23T18:50:58.709Z,38.30
2019-01-23T18:53:29.298Z,41.93
2019-01-23T18:56:02.693Z,39.07
2019-01-23T18:58:33.231Z,36.40
2019-01-23T19:01:04.027Z,39.77
2019-01-23T19:03:34.866Z,40.48
2019-01-23T19:06:05.602Z,52.40
2019-01-23T19:08:37.987Z,42.10
2019-01-23T19:11:10.086Z,35.07
2019-01-23T19:13:42.682Z,37.63
2019-01-23T19:16:13.581Z,42.13
2019-01-23T19:18:44.173Z,39.37
2019-01-23T19:21:15.426Z,40.00
2019-01-23T19:23:46.242Z,38.77
2019-01-23T19:26:17.152Z,38.53
2019-01-23T19:28:48.092Z,35.50
2019-01-23T19:31:19.056Z,40.33
2019-01-23T19:33:49.776Z,42.43
2019-01-23T19:36:20.697Z,35.57
2019-01-23T19:38:51.434Z,39.97
2019-01-23T19:41:22.346Z,40.17
2019-01-23T19:43:53.173Z,48.27
2019-01-23T19:46:24.067Z,38.60
2019-01-23T19:48:54.656Z,43.47
2019-01-23T19:51:25.333Z,43.92
2019-01-23T19:53:56.267Z,40.50
2019-01-23T19:56:27.111Z,34.95
2019-01-23T19:58:57.734Z,38.20
2019-01-23T20:01:28.344Z,41.00
2019-01-23T20:03:59.149Z,42.90
2019-01-23T20:06:29.795Z,37.37
2019-01-23T20:09:00.458Z,37.87
2019-01-23T20:11:31.400Z,38.77
2019-01-23T20:14:02.173Z,42.27
2019-01-23T20:16:33.109Z,42.60
2019-01-23T20:19:07.698Z,43.43
2019-01-23T20:21:38.310Z,35.23
2019-01-23T20:24:08.917Z,38.23
2019-01-23T20:26:41.519Z,43.40
2019-01-23T20:29:12.371Z,40.47
2019-01-23T20:31:43.205Z,39.87
2019-01-23T20:34:13.904Z,45.10
2019-01-23T20:36:44.511Z,42.57
2019-01-23T20:39:15.593Z,32.53
2019-01-23T20:41:46.393Z,44.13
2019-01-23T20:44:17.241Z,41.02
2019-01-23T20:46:48.163Z,39.70
2019-01-23T20:49:18.752Z,42.27
2019-01-23T20:51:49.453Z,50.10
2019-01-23T20:54:20.401Z,41.58
2019-01-23T20:56:51.234Z,41.33
2019-01-23T20:59:21.796Z,50.45
2019-01-23T21:01:52.436Z,43.03
2019-01-23T21:04:23.634Z,40.75
2019-01-23T21:06:54.467Z,41.30
2019-01-23T21:09:25.412Z,43.92
2019-01-23T21:11:56.318Z,39.73
2019-01-23T21:14:27.285Z,37.63
2019-01-23T21:16:58.114Z,44.23
2019-01-23T21:19:29.180Z,50.40
2019-01-23T21:21:59.767Z,46.37
2019-01-23T21:24:30.494Z,44.53
2019-01-23T21:27:01.269Z,43.90
2019-01-23T21:29:32.266Z,55.35
2019-01-23T21:32:02.815Z,43.90
2019-01-23T21:34:33.392Z,37.60
2019-01-23T21:37:04.063Z,45.23
2019-01-23T21:39:34.654Z,44.43
2019-01-23T21:42:05.340Z,41.73
2019-01-23T21:44:36.230Z,50.23
2019-01-23T21:47:06.846Z,45.87
2019-01-23T21:49:37.408Z,49.57
2019-01-23T21:52:08.153Z,48.03
2019-01-23T21:54:38.733Z,42.43
2019-01-23T21:57:09.672Z,43.47
2019-01-23T21:59:40.363Z,48.10
2019-01-23T22:02:11.656Z,41.30
2019-01-23T22:04:42.344Z,39.23
2019-01-23T22:07:13.613Z,39.65
2019-01-23T22:09:44.606Z,45.97
2019-01-23T22:12:15.567Z,37.67
2019-01-23T22:14:46.295Z,39.73
2019-01-23T22:17:16.902Z,43.53
2019-01-23T22:19:47.530Z,38.13
2019-01-23T22:22:18.352Z,39.50
2019-01-23T22:24:48.856Z,33.63
2019-01-23T22:27:19.727Z,41.53
2019-01-23T22:29:50.396Z,41.10
2019-01-23T22:32:20.936Z,43.83
2019-01-23T22:34:51.601Z,42.13
2019-01-23T22:37:22.424Z,41.57
2019-01-23T22:39:53.019Z,36.40
2019-01-23T22:42:23.755Z,36.07
2019-01-23T22:44:54.374Z,37.73
2019-01-23T22:47:24.932Z,40.47
2019-01-23T22:49:55.490Z,41.37
2019-01-23T22:52:26.644Z,37.65
2019-01-23T22:54:57.487Z,37.10
2019-01-23T22:57:28.340Z,36.48
2019-01-23T22:59:58.878Z,36.97
2019-01-23T23:02:29.503Z,37.20
2019-01-23T23:05:00.378Z,34.17
2019-01-23T23:07:30.908Z,39.97
2019-01-23T23:10:01.652Z,36.67
2019-01-23T23:12:32.587Z,40.33
2019-01-23T23:15:03.465Z,37.40
2019-01-23T23:17:34.287Z,42.85
2019-01-23T23:20:05.598Z,46.07
2019-01-23T23:22:36.408Z,37.23
2019-01-23T23:25:08.040Z,38.27
2019-01-23T23:27:39.567Z,42.97
2019-01-23T23:30:13.682Z,36.27
2019-01-23T23:32:44.454Z,37.53
2019-01-23T23:35:15.037Z,38.77
2019-01-23T23:37:45.597Z,39.87
2019-01-23T23:40:16.409Z,36.95
2019-01-23T23:42:46.959Z,42.07
2019-01-23T23:45:18.005Z,34.67
2019-01-23T23:47:48.665Z,39.60
2019-01-23T23:50:19.786Z,40.20
2019-01-23T23:52:50.477Z,45.40
2019-01-23T23:55:21.326Z,43.45
2019-01-23T23:57:51.824Z,43.83
